DW3263 Weather Reports


time (UTC)temp
C
wind
direction
speed
KPH
gust
KPH
rain 1hr
cm
rain 24hr
cm
rain mn
cm
humidity
%
barometer
mb
20200531072519 12 315 3.2 6.4 0.00 0.00 0.00 68 1016.3
20200531071634 13 315 3.2 4.8 0.00 0.00 0.00 67 1016.2
20200531070517 13 315 1.6 6.4 0.00 0.00 0.00 64 1016.1
20200531065634 13 315 3.2 6.4 0.00 0.00 0.00 64 1016.2
20200531064633 13 315 3.2 8.0 0.00 0.00 0.00 62 1016.1
20200531063632 13 270 3.2 8.0 0.00 0.00 0.00 62 1016.1
20200531062634 13 338 3.2 6.4 0.00 0.00 0.00 62 1016.0
20200531061633 14 0.0 3.2 0.00 0.00 0.00 60 1016.1
20200531060632 14 338 3.2 6.4 0.00 0.00 0.00 60 1015.9
20200531055518 15 338 1.6 8.0 0.00 0.03 0.00 57 1015.9
20200531054634 15 338 3.2 12.9 0.00 0.03 0.00 56 1015.8
20200531053632 15 0 8.0 20.9 0.00 0.03 0.00 56 1015.9
20200531052532 15 293 4.8 11.3 0.00 0.03 0.00 57 1015.7
20200531051634 15 293 6.4 12.9 0.00 0.03 0.00 57 1015.7
20200531050634 15 315 4.8 9.7 0.00 0.03 0.00 57 1015.7
20200531045632 15 315 4.8 8.0 0.00 0.03 0.00 57 1015.8
20200531044517 15 315 3.2 6.4 0.00 0.03 0.00 56 1015.7
20200531043634 16 293 6.4 11.3 0.00 0.03 0.00 55 1015.7
20200531042518 16 338 4.8 12.9 0.00 0.03 0.00 57 1015.7
20200531041632 15 338 4.8 9.7 0.00 0.03 0.00 64 1015.7
20200531040632 15 338 3.2 4.8 0.00 0.03 0.00 70 1015.8
20200531035633 16 338 1.6 4.8 0.00 0.03 0.03 64 1015.6
20200531034532 17 0.0 1.6 0.00 0.03 0.03 61 1015.5
20200531033632 17 338 3.2 11.3 0.00 0.03 0.03 61 1015.5
20200531032633 17 338 1.6 8.0 0.00 0.03 0.03 59 1015.4
20200531031633 17 293 6.4 9.7 0.00 0.03 0.03 58 1015.2
20200531030519 18 315 6.4 16.1 0.00 0.03 0.03 58 1015.2
20200531025633 18 338 8.0 17.7 0.00 0.03 0.03 57 1015.1
20200531024633 18 315 8.0 22.5 0.00 0.03 0.03 58 1015.0
20200531023633 18 338 8.0 19.3 0.00 0.03 0.03 59 1014.8
20200531022633 18 338 6.4 11.3 0.00 0.05 0.03 60 1014.8
20200531021633 18 315 6.4 19.3 0.00 0.13 0.03 60 1014.5
20200531020633 18 315 4.8 9.7 0.00 0.25 0.03 60 1014.3
20200531015519 19 315 6.4 11.3 0.00 0.30 0.03 59 1014.2
20200531014633 19 293 4.8 12.9 0.00 0.99 0.03 59 1014.2
20200531013633 20 293 6.4 14.5 0.00 0.99 0.03 58 1014.1
20200531012633 20 315 6.4 16.1 0.00 0.99 0.03 58 1013.9
20200531011633 20 315 9.7 19.3 0.00 0.99 0.03 58 1013.7
20200531010633 20 315 4.8 19.3 0.00 0.99 0.03 61 1013.6
20200531005633 20 270 6.4 11.3 0.00 0.99 0.03 60 1013.4
20200531004633 20 315 3.2 9.7 0.00 0.99 0.03 60 1013.3
20200531003633 20 315 4.8 14.5 0.00 0.99 0.03 60 1013.2
20200531002633 20 293 6.4 12.9 0.00 0.99 0.03 59 1013.0
20200531001633 21 315 8.0 16.1 0.00 0.99 0.03 58 1012.9
20200531000633 21 338 6.4 14.5 0.00 0.99 0.03 57 1012.7
20200530235519 21 315 4.8 9.7 0.00 0.99 0.03 56 1012.6
20200530234633 22 293 4.8 12.9 0.00 0.99 0.03 54 1012.4
20200530233519 22 338 11.3 19.3 0.00 0.99 0.03 54 1012.3
20200530232634 22 315 6.4 12.9 0.00 0.99 0.03 55 1012.2
20200530231633 22 315 4.8 14.5 0.00 0.99 0.03 55 1012.3
20200530230634 22 338 11.3 24.1 0.00 0.99 0.03 54 1012.2
20200530225633 23 315 8.0 14.5 0.00 0.99 0.03 53 1012.1
20200530224634 23 338 8.0 17.7 0.00 0.99 0.03 53 1012.0
20200530223633 23 315 6.4 12.9 0.00 0.99 0.03 52 1011.8
20200530222519 23 293 3.2 9.7 0.00 0.99 0.03 56 1011.8
20200530221633 23 315 3.2 9.7 0.00 0.99 0.03 51 1011.7
20200530220633 23 270 6.4 16.1 0.00 0.99 0.03 52 1011.6
20200530215633 24 315 6.4 12.9 0.00 0.99 0.03 51 1011.6
20200530214633 23 338 3.2 8.0 0.00 0.99 0.03 54 1011.7
20200530213633 23 338 6.4 12.9 0.00 0.99 0.03 54 1011.7
20200530212519 23 338 9.7 16.1 0.00 0.99 0.03 53 1011.9
20200530211633 23 338 11.3 17.7 0.00 0.99 0.03 54 1011.9
20200530210633 23 338 8.0 16.1 0.00 0.99 0.03 55 1012.0
20200530205633 23 315 4.8 12.9 0.00 0.99 0.03 55 1012.1
20200530204633 23 338 9.7 19.3 0.00 0.99 0.03 54 1012.1
20200530203633 23 315 8.0 29.0 0.00 0.99 0.03 52 1012.1
20200530202634 23 338 11.3 20.9 0.00 0.99 0.03 50 1011.9
20200530201633 23 338 8.0 19.3 0.00 0.99 0.03 51 1011.7
20200530200634 23 315 9.7 16.1 0.00 0.99 0.03 54 1011.7
20200530195633 24 293 4.8 14.5 0.00 0.99 0.03 50 1011.6
20200530194518 23 293 3.2 9.7 0.00 0.99 0.03 54 1011.8
20200530193634 23 270 6.4 14.5 0.00 0.99 0.03 53 1011.7
20200530192632 23 293 8.0 17.7 0.00 0.99 0.03 52 1011.8
20200530191634 23 315 3.2 11.3 0.00 0.99 0.03 54 1011.9
20200530190520 23 338 8.0 12.9 0.00 0.99 0.03 51 1011.9
20200530185634 23 315 4.8 11.3 0.00 0.99 0.03 51 1012.0
20200530184517 24 315 8.0 19.3 0.00 0.99 0.03 51 1012.0
20200530183633 25 248 9.7 22.5 0.00 0.99 0.03 49 1011.8
20200530182633 24 270 9.7 19.3 0.00 0.99 0.03 50 1012.0
20200530181632 24 293 8.0 19.3 0.00 0.99 0.03 49 1012.1
20200530180634 24 338 6.4 16.1 0.00 0.99 0.03 50 1012.2
20200530175634 23 338 1.6 8.0 0.00 0.99 0.03 52 1012.3
20200530174632 23 338 1.6 9.7 0.00 0.99 0.03 54 1012.4
20200530173518 23 315 8.0 17.7 0.00 0.99 0.03 50 1012.5
20200530172633 23 315 4.8 14.5 0.00 0.99 0.03 51 1012.6
20200530171633 23 315 3.2 9.7 0.00 0.99 0.03 55 1012.6
20200530170632 23 315 6.4 17.7 0.00 0.99 0.03 54 1012.7
20200530165634 23 338 8.0 14.5 0.00 0.99 0.03 57 1012.7
20200530164634 23 270 6.4 17.7 0.00 0.99 0.03 55 1012.8
20200530163632 22 248 6.4 12.9 0.00 0.99 0.03 55 1012.7
20200530162518 22 315 9.7 17.7 0.00 0.99 0.03 56 1012.7
20200530161634 22 293 8.0 16.1 0.00 0.99 0.03 57 1012.8
20200530160631 22 315 3.2 12.9 0.00 0.99 0.03 58 1012.9
20200530155632 22 338 3.2 12.9 0.00 0.99 0.03 61 1012.9
20200530154632 22 270 6.4 17.7 0.00 0.99 0.03 59 1013.1
20200530153632 22 315 4.8 12.9 0.00 0.99 0.03 62 1013.2
20200530152634 21 338 6.4 17.7 0.00 0.99 0.03 62 1013.3
20200530151634 21 0 6.4 22.5 0.00 0.99 0.03 61 1013.4
20200530150632 21 338 3.2 14.5 0.00 0.99 0.03 63 1013.6
20200530145632 21 23 6.4 14.5 0.00 0.99 0.03 61 1013.7
20200530144634 20 338 6.4 12.9 0.00 0.99 0.03 62 1013.8
20200530143632 20 315 1.6 8.0 0.00 0.99 0.03 67 1013.8
20200530142632 20 315 6.4 11.3 0.00 0.99 0.03 65 1013.7
20200530141517 20 338 6.4 16.1 0.00 0.99 0.03 66 1013.9
20200530140520 19 315 6.4 14.5 0.00 0.99 0.03 68 1013.9
20200530135633 19 315 4.8 11.3 0.00 0.99 0.03 66 1013.9
20200530134632 19 315 8.0 17.7 0.00 0.99 0.03 66 1014.1
20200530133634 19 45 3.2 11.3 0.00 0.99 0.03 69 1014.1
20200530132632 18 0 6.4 12.9 0.00 0.99 0.03 68 1014.0
20200530131632 18 270 4.8 12.9 0.00 0.99 0.03 69 1014.2
20200530130517 18 0 3.2 11.3 0.00 0.99 0.03 67 1014.2
20200530125632 18 338 4.8 14.5 0.00 0.99 0.03 69 1013.9
20200530124632 18 338 4.8 12.9 0.00 0.99 0.03 71 1013.9
20200530123632 18 338 3.2 9.7 0.00 0.99 0.03 70 1013.9
20200530122634 18 338 1.6 6.4 0.00 0.99 0.03 73 1013.9
20200530121632 17 338 4.8 12.9 0.00 0.99 0.03 72 1013.8
20200530120632 17 338 3.2 8.0 0.00 0.99 0.03 74 1013.8
20200530115632 17 338 3.2 9.7 0.00 0.99 0.03 76 1013.8
20200530114518 17 338 6.4 16.1 0.00 0.99 0.03 76 1013.6
20200530113632 16 315 8.0 12.9 0.00 0.99 0.03 78 1013.3
20200530112632 16 293 4.8 12.9 0.00 0.99 0.03 81 1013.4
20200530111630 16 293 4.8 9.7 0.00 0.99 0.03 84 1013.3
20200530110632 16 293 3.2 8.0 0.00 0.99 0.03 85 1013.4
20200530105632 16 293 6.4 12.9 0.00 0.99 0.03 84 1013.2
20200530104518 16 293 6.4 11.3 0.00 0.99 0.03 84 1013.2
20200530103632 16 293 4.8 11.3 0.00 0.99 0.03 87 1013.1
20200530102632 16 270 4.8 11.3 0.00 0.99 0.03 88 1013.0
20200530101632 16 293 4.8 9.7 0.00 0.99 0.03 89 1012.9
20200530100631 16 293 4.8 11.3 0.00 0.99 0.03 89 1013.1
20200530095632 16 293 4.8 9.7 0.00 0.99 0.03 90 1012.8
20200530094632 16 315 6.4 17.7 0.00 0.99 0.03 91 1012.7
20200530093518 16 315 4.8 12.9 0.00 0.99 0.03 93 1012.6
20200530092632 16 315 6.4 9.7 0.00 0.99 0.03 92 1012.5
20200530091632 16 315 6.4 12.9 0.00 0.99 0.03 93 1012.3
20200530090632 16 315 1.6 6.4 0.00 0.99 0.03 95 1012.2
20200530085633 16 315 4.8 8.0 0.00 0.99 0.03 97 1012.0
20200530084632 16 315 4.8 12.9 0.00 0.99 0.03 97 1011.9
20200530083632 16 315 3.2 8.0 0.00 0.99 0.03 97 1011.7
20200530082518 16 315 4.8 8.0 0.00 0.99 0.03 97 1011.5
20200530081632 16 0.0 0.0 0.00 0.99 0.03 97 1011.5
20200530080633 16 0.0 0.0 0.00 0.99 0.03 97 1011.4
20200530075632 16 0.0 0.0 0.00 0.99 0.03 97 1011.4
20200530074632 16 0.0 0.0 0.00 0.99 0.03 97 1011.3
20200530073632 16 0.0 0.0 0.00 0.99 0.03 96 1011.2